Carrington, Missouri
Current Conditions -  °F | °C
As of 10:54 PM on Sunday 28 Dec 2014 (Local Time) from KCOU Reporting Station
Clear Clear  
Wind Chill: 30°   Ceiling: Unl
Heat Index: 30°   Visibility: 10mi
Dew Point: 21°   Wind: 3mph
Humidity: 69%   Direction: 110°ESE
Pressure: 30.21"   Gusts: NA
Location:  38.8555°N, 91.9568°W
Report Text: KCOU 290454Z AUTO 11003KT 10SM CLR M01/M06 A3021 RMK AO2 SLP238 T10111061 $
Loading
Personal Weather Stations






























Interactive Weather Map New forecast layout! Learn more

10-Day Weather Forecast

Advertisements
Track Severe Weather on mobile